Time;durP1;ratioP1;P1;durP2;ratioP2;P2;SDS_P1;SDS_P2;PMS_P1;PMS_P2;Temp;Humidity;BMP_temperature;BMP_pressure;BME280_temperature;BME280_humidity;BME280_pressure;Samples;Min_cycle;Max_cycle;Signal;HPM_P1;HPM_P2
2021/10/24 00:00:34;;;;;;;;;;;;;;;18.15;58.65;100358.13;2073694;28;20293;-70
2021/10/24 00:01:35;;;;;;;;;;;;;;;18.14;58.73;100357.28;2073846;28;19983;-70
2021/10/24 00:02:36;;;;;;;;;;;;;;;18.14;58.67;100351.81;2080115;28;19914;-71
2021/10/24 00:03:36;;;;;;;;;;;;;;;18.15;58.59;100358.13;2080240;28;20306;-71
2021/10/24 00:04:36;;;;;;;;;;;;;;;18.14;58.48;100361.88;2070248;28;19913;-71
2021/10/24 00:05:37;;;;;;;;;;;;;;;18.14;58.70;100350.97;2074305;28;20207;-71
2021/10/24 00:06:37;;;;;;;;;;;;;;;18.14;58.49;100356.41;2078509;28;19946;-70
2021/10/24 00:07:37;;;;;;;;;;;;;;;18.14;58.74;100353.69;2082838;28;19935;-70
2021/10/24 00:08:40;;;;;;;;;;;;;;;18.13;58.75;100354.69;2082524;28;21295;-70
2021/10/24 00:09:40;;;;;;;;;;;;;;;18.14;58.50;100356.41;2074307;28;19931;-70
2021/10/24 00:10:40;;;;;;;;;;;;;;;18.13;58.66;100361.00;2073879;28;19913;-70
2021/10/24 00:11:41;;;;;;;;;;;;;;;18.14;58.67;100356.41;2078740;28;19959;-70
2021/10/24 00:12:41;;;;;;;;;;;;;;;18.13;58.70;100355.56;2075366;28;19916;-70
2021/10/24 00:13:41;;;;;;;;;;;;;;;18.14;58.61;100350.97;2081819;28;20372;-70
2021/10/24 00:14:42;;;;;;;;;;;;;;;18.13;58.51;100354.69;2085522;28;19920;-71
2021/10/24 00:15:43;;;;;;;;;;;;;;;18.14;58.58;100359.13;2081448;28;19913;-70
2021/10/24 00:16:44;;;;;;;;;;;;;;;18.13;58.61;100349.25;2081879;28;19946;-71
2021/10/24 00:17:44;;;;;;;;;;;;;;;18.13;58.63;100355.56;2080003;28;19924;-71
2021/10/24 00:18:45;;;;;;;;;;;;;;;18.13;58.64;100354.69;2080623;28;19940;-71
2021/10/24 00:19:45;;;;;;;;;;;;;;;18.13;58.50;100349.25;2078727;28;20044;-71
2021/10/24 00:20:45;;;;;;;;;;;;;;;18.13;58.49;100360.16;2075394;28;20379;-71
2021/10/24 00:21:46;;;;;;;;;;;;;;;18.13;58.41;100354.69;2082503;28;19916;-71
2021/10/24 00:22:46;;;;;;;;;;;;;;;18.13;58.56;100355.56;2082262;28;19924;-70
2021/10/24 00:23:46;;;;;;;;;;;;;;;18.12;58.44;100358.41;2081258;28;19922;-71
2021/10/24 00:24:46;;;;;;;;;;;;;;;18.13;58.55;100354.69;2081589;28;19936;-71
2021/10/24 00:25:47;;;;;;;;;;;;;;;18.13;58.49;100360.16;2084259;28;19917;-71
2021/10/24 00:26:48;;;;;;;;;;;;;;;18.12;58.43;100353.81;2082809;28;19948;-71
2021/10/24 00:27:48;;;;;;;;;;;;;;;18.12;58.29;100359.25;2087290;28;20378;-71
2021/10/24 00:28:49;;;;;;;;;;;;;;;18.12;58.32;100358.41;2080875;28;20014;-71
2021/10/24 00:29:49;;;;;;;;;;;;;;;18.12;58.33;100358.41;2081825;28;20133;-71
2021/10/24 00:30:51;;;;;;;;;;;;;;;18.12;58.31;100359.25;2084769;28;19943;-71
2021/10/24 00:31:51;;;;;;;;;;;;;;;18.12;58.25;100353.81;2083360;28;19917;-71
2021/10/24 00:32:52;;;;;;;;;;;;;;;18.12;58.35;100355.69;2083678;28;19970;-71
2021/10/24 00:33:52;;;;;;;;;;;;;;;18.11;58.35;100352.09;2083284;28;19916;-71
2021/10/24 00:34:52;;;;;;;;;;;;;;;18.12;58.42;100352.94;2083936;28;19916;-71
2021/10/24 00:35:52;;;;;;;;;;;;;;;18.11;58.40;100357.56;2084305;28;19990;-72
2021/10/24 00:36:53;;;;;;;;;;;;;;;18.11;58.42;100353.97;2076170;28;19913;-71
2021/10/24 00:37:53;;;;;;;;;;;;;;;18.10;58.29;100350.34;2079930;28;20644;-70
2021/10/24 00:38:53;;;;;;;;;;;;;;;18.11;58.19;100359.44;2085545;28;20615;-71
2021/10/24 00:39:54;;;;;;;;;;;;;;;18.10;58.20;100360.41;2085219;28;20456;-71
2021/10/24 00:40:54;;;;;;;;;;;;;;;18.11;58.05;100353.97;2084719;28;19917;-71
2021/10/24 00:41:55;;;;;;;;;;;;;;;18.10;58.15;100354.94;2084119;28;20013;-71
2021/10/24 00:42:55;;;;;;;;;;;;;;;18.09;58.27;100358.69;2085069;28;20535;-72
2021/10/24 00:43:56;;;;;;;;;;;;;;;18.10;58.18;100355.81;2082555;28;19927;-71
2021/10/24 00:44:56;;;;;;;;;;;;;;;18.10;58.08;100355.81;2083661;28;19966;-71
2021/10/24 00:45:57;;;;;;;;;;;;;;;18.11;58.17;100356.69;2083366;28;20291;-71
2021/10/24 00:46:58;;;;;;;;;;;;;;;18.10;57.97;100360.41;2083314;28;20331;-71
2021/10/24 00:47:58;;;;;;;;;;;;;;;18.10;58.25;100354.94;2084357;28;19943;-71
2021/10/24 00:48:59;;;;;;;;;;;;;;;18.10;57.95;100358.53;2084509;28;19917;-71
2021/10/24 00:49:59;;;;;;;;;;;;;;;18.10;58.05;100360.41;2084404;28;19917;-71
2021/10/24 00:50:59;;;;;;;;;;;;;;;18.09;58.26;100359.56;2081846;28;20397;-71
2021/10/24 00:52:00;;;;;;;;;;;;;;;18.10;58.01;100365.88;2085458;28;19919;-71
2021/10/24 00:53:02;;;;;;;;;;;;;;;18.09;58.07;100365.00;2081272;28;19917;-71
2021/10/24 00:54:02;;;;;;;;;;;;;;;18.09;58.15;100370.47;2085080;28;19999;-71
2021/10/24 00:55:03;;;;;;;;;;;;;;;18.08;58.17;100367.84;2084806;28;19924;-71
2021/10/24 00:56:03;;;;;;;;;;;;;;;18.10;57.94;100365.88;2083410;28;19997;-71
2021/10/24 00:57:04;;;;;;;;;;;;;;;18.09;58.12;100369.59;2081167;28;19944;-71
2021/10/24 00:58:05;;;;;;;;;;;;;;;18.10;58.02;100376.78;2081703;28;19943;-71
2021/10/24 00:59:05;;;;;;;;;;;;;;;18.09;58.16;100365.00;2078549;28;19917;-71
2021/10/24 01:00:08;;;;;;;;;;;;;;;18.08;57.98;100371.47;2083390;28;19916;-71
2021/10/24 01:01:08;;;;;;;;;;;;;;;18.09;57.98;100372.34;2083891;28;19924;-71
2021/10/24 01:02:08;;;;;;;;;;;;;;;18.08;57.91;100365.13;2086587;28;19982;-71
2021/10/24 01:03:09;;;;;;;;;;;;;;;18.08;58.03;100362.41;2082003;28;21231;-71
2021/10/24 01:04:09;;;;;;;;;;;;;;;18.08;57.96;100362.41;2073257;28;19917;-71
2021/10/24 01:05:10;;;;;;;;;;;;;;;18.08;58.05;100374.19;2074159;28;19944;-71
2021/10/24 01:06:11;;;;;;;;;;;;;;;18.08;57.88;100365.13;2081354;28;20442;-71
2021/10/24 01:07:13;;;;;;;;;;;;;;;18.08;57.84;100367.84;2085762;28;19921;-70
2021/10/24 01:08:14;;;;;;;;;;;;;;;18.07;57.95;100364.28;2084458;28;20057;-71
2021/10/24 01:09:15;;;;;;;;;;;;;;;18.07;57.91;100360.69;2083664;28;19920;-71
2021/10/24 01:10:16;;;;;;;;;;;;;;;18.06;57.81;100364.44;2082712;28;20351;-71
2021/10/24 01:11:16;;;;;;;;;;;;;;;18.07;58.01;100361.53;2081880;28;19921;-71
2021/10/24 01:12:17;;;;;;;;;;;;;;;18.07;57.88;100361.53;2084575;28;19973;-71
2021/10/24 01:13:17;;;;;;;;;;;;;;;18.06;57.87;100351.66;2084384;28;19974;-71
2021/10/24 01:14:17;;;;;;;;;;;;;;;18.07;58.09;100368.88;2082182;28;19920;-72
2021/10/24 01:15:19;;;;;;;;;;;;;;;18.07;57.79;100361.53;2082219;28;20549;-71
2021/10/24 01:16:19;;;;;;;;;;;;;;;18.07;57.88;100360.69;2084752;28;19922;-71
2021/10/24 01:17:20;;;;;;;;;;;;;;;18.07;57.95;100358.81;2083583;28;20367;-71
2021/10/24 01:18:21;;;;;;;;;;;;;;;18.07;57.76;100360.69;2083158;28;19904;-71
2021/10/24 01:19:21;;;;;;;;;;;;;;;18.06;57.90;100358.97;2079571;28;20405;-71
2021/10/24 01:20:24;;;;;;;;;;;;;;;18.07;57.81;100360.69;2079493;28;19923;-71
2021/10/24 01:21:24;;;;;;;;;;;;;;;18.06;57.82;100358.97;2081775;28;19963;-71
2021/10/24 01:22:24;;;;;;;;;;;;;;;18.07;57.56;100349.78;2078623;28;19956;-71
2021/10/24 01:23:25;;;;;;;;;;;;;;;18.06;57.78;100358.97;2083895;28;19952;-71
2021/10/24 01:24:25;;;;;;;;;;;;;;;18.05;57.79;100362.69;2082686;28;20387;-70
2021/10/24 01:25:25;;;;;;;;;;;;;;;18.06;57.84;100362.56;2085887;28;20108;-70
2021/10/24 01:26:26;;;;;;;;;;;;;;;18.06;57.81;100358.97;2082428;28;19963;-70
2021/10/24 01:27:27;;;;;;;;;;;;;;;18.07;57.81;100360.69;2083451;28;19918;-70
2021/10/24 01:28:28;;;;;;;;;;;;;;;18.05;57.81;100358.09;2084537;28;20148;-70
2021/10/24 01:29:28;;;;;;;;;;;;;;;18.05;57.78;100358.09;2084775;28;20610;-70
2021/10/24 01:30:28;;;;;;;;;;;;;;;18.04;57.75;100356.38;2086218;28;19970;-70
2021/10/24 01:31:29;;;;;;;;;;;;;;;18.05;57.82;100362.69;2084812;28;19916;-70
2021/10/24 01:32:29;;;;;;;;;;;;;;;18.05;57.62;100349.03;2085290;28;20345;-71
2021/10/24 01:33:29;;;;;;;;;;;;;;;18.05;57.65;100354.50;2084721;28;19952;-71
2021/10/24 01:34:30;;;;;;;;;;;;;;;18.05;57.85;100352.63;2080078;28;20166;-71
2021/10/24 01:35:30;;;;;;;;;;;;;;;18.04;57.55;100353.66;2082357;28;20619;-70
2021/10/24 01:36:31;;;;;;;;;;;;;;;18.05;57.57;100357.22;2082089;28;19920;-71
2021/10/24 01:37:31;;;;;;;;;;;;;;;18.05;57.79;100352.63;2083318;28;20012;-71
2021/10/24 01:38:33;;;;;;;;;;;;;;;18.04;57.65;100355.50;2086566;28;19912;-71
2021/10/24 01:39:33;;;;;;;;;;;;;;;18.04;57.46;100350.91;2083261;28;20304;-70
2021/10/24 01:40:33;;;;;;;;;;;;;;;18.04;57.73;100345.47;2081742;28;19951;-70
2021/10/24 01:41:34;;;;;;;;;;;;;;;18.04;57.52;100347.34;2084947;28;19930;-70
2021/10/24 01:42:34;;;;;;;;;;;;;;;18.04;57.64;100340.00;2081741;28;20495;-71
2021/10/24 01:43:35;;;;;;;;;;;;;;;18.04;57.43;100347.34;2083538;28;20370;-70
2021/10/24 01:44:37;;;;;;;;;;;;;;;18.03;57.57;100340.13;2082000;28;19909;-70
2021/10/24 01:45:37;;;;;;;;;;;;;;;18.03;57.45;100342.84;2078406;28;19921;-70
2021/10/24 01:46:37;;;;;;;;;;;;;;;18.04;57.39;100344.59;2083317;28;20003;-70
2021/10/24 01:47:38;;;;;;;;;;;;;;;18.03;57.41;100342.84;2084840;28;19998;-70
2021/10/24 01:48:38;;;;;;;;;;;;;;;18.04;57.53;100339.16;2084216;28;19905;-70
2021/10/24 01:49:38;;;;;;;;;;;;;;;18.03;57.73;100338.28;2080667;28;19917;-71
2021/10/24 01:50:39;;;;;;;;;;;;;;;18.02;57.46;100342.00;2086544;28;19921;-71
2021/10/24 01:51:40;;;;;;;;;;;;;;;18.03;57.61;100337.41;2079399;28;19948;-70
2021/10/24 01:52:41;;;;;;;;;;;;;;;18.03;57.62;100337.41;2083182;28;19921;-71
2021/10/24 01:53:42;;;;;;;;;;;;;;;18.03;57.38;100348.31;2081035;28;19952;-70
2021/10/24 01:54:43;;;;;;;;;;;;;;;18.02;57.51;100342.00;2084348;28;20495;-70
2021/10/24 01:55:44;;;;;;;;;;;;;;;18.03;57.66;100331.94;2080104;28;19935;-71
2021/10/24 01:56:44;;;;;;;;;;;;;;;18.02;57.66;100342.00;2081098;28;19927;-70
2021/10/24 01:57:46;;;;;;;;;;;;;;;18.01;57.51;100332.09;2084404;28;20217;-71
2021/10/24 01:58:47;;;;;;;;;;;;;;;18.02;57.46;100335.69;2084019;28;20258;-71
2021/10/24 01:59:47;;;;;;;;;;;;;;;18.02;57.63;100330.22;2083311;28;19904;-70
2021/10/24 02:00:49;;;;;;;;;;;;;;;18.00;57.63;100333.94;2077698;28;19967;-71
2021/10/24 02:01:49;;;;;;;;;;;;;;;18.00;57.40;100325.75;2083149;28;20246;-71
2021/10/24 02:02:50;;;;;;;;;;;;;;;18.02;57.40;100332.97;2084999;28;19917;-71
2021/10/24 02:03:50;;;;;;;;;;;;;;;18.00;57.59;100328.47;2083845;28;19916;-71
2021/10/24 02:04:50;;;;;;;;;;;;;;;18.00;57.54;100328.47;2082862;28;19926;-71
2021/10/24 02:05:51;;;;;;;;;;;;;;;18.00;57.59;100333.09;2080687;28;19960;-70
2021/10/24 02:06:51;;;;;;;;;;;;;;;18.01;57.43;100334.84;2084244;28;19924;-70
2021/10/24 02:07:51;;;;;;;;;;;;;;;18.00;57.60;100328.47;2085798;28;19963;-71
2021/10/24 02:08:51;;;;;;;;;;;;;;;17.99;57.19;100329.50;2081861;28;20620;-70
2021/10/24 02:09:52;;;;;;;;;;;;;;;18.00;57.39;100328.47;2083173;28;19916;-70
2021/10/24 02:10:52;;;;;;;;;;;;;;;18.00;57.26;100325.75;2084485;28;20010;-71
2021/10/24 02:11:53;;;;;;;;;;;;;;;18.00;57.34;100323.03;2070540;28;20268;-70
2021/10/24 02:12:53;;;;;;;;;;;;;;;18.00;57.44;100333.94;2072601;28;19916;-71
2021/10/24 02:13:53;;;;;;;;;;;;;;;18.00;57.46;100328.47;2086142;28;19970;-70
2021/10/24 02:14:54;;;;;;;;;;;;;;;17.99;57.22;100332.22;2084877;28;19917;-70
2021/10/24 02:15:54;;;;;;;;;;;;;;;17.99;57.16;100321.31;2081549;28;20317;-70
2021/10/24 02:16:54;;;;;;;;;;;;;;;17.99;57.35;100326.78;2073732;28;19921;-70
2021/10/24 02:17:55;;;;;;;;;;;;;;;17.99;57.29;100325.91;2069448;28;19916;-70
2021/10/24 02:18:55;;;;;;;;;;;;;;;17.99;57.44;100321.31;2083896;28;19916;-71
2021/10/24 02:19:55;;;;;;;;;;;;;;;17.99;57.47;100321.31;2082823;28;19909;-71
2021/10/24 02:20:56;;;;;;;;;;;;;;;17.98;57.36;100316.88;2082299;28;19926;-71
2021/10/24 02:21:56;;;;;;;;;;;;;;;17.98;57.20;100322.34;2073577;28;20367;-71
2021/10/24 02:22:56;;;;;;;;;;;;;;;17.98;57.18;100319.59;2073977;28;19940;-70
2021/10/24 02:23:57;;;;;;;;;;;;;;;17.97;57.33;100317.00;2083957;28;19922;-70
2021/10/24 02:24:57;;;;;;;;;;;;;;;17.99;57.36;100315.00;2082743;28;19920;-70
2021/10/24 02:25:57;;;;;;;;;;;;;;;17.98;57.19;100314.16;2083690;28;19916;-71
2021/10/24 02:26:58;;;;;;;;;;;;;;;17.98;57.04;100319.59;2084068;28;19920;-70
2021/10/24 02:27:58;;;;;;;;;;;;;;;17.97;57.17;100312.41;2085136;28;20436;-70
2021/10/24 02:28:58;;;;;;;;;;;;;;;17.98;57.19;100308.69;2078123;28;19925;-70
2021/10/24 02:29:59;;;;;;;;;;;;;;;17.98;57.15;100311.41;2081616;28;20345;-71
2021/10/24 02:30:59;;;;;;;;;;;;;;;17.99;57.19;100321.31;2083481;28;20296;-71
2021/10/24 02:31:59;;;;;;;;;;;;;;;17.98;57.16;100314.16;2082971;28;20679;-71
2021/10/24 02:32:59;;;;;;;;;;;;;;;17.97;57.40;100312.41;2081728;28;19916;-69
2021/10/24 02:34:00;;;;;;;;;;;;;;;17.96;57.23;100310.69;2082175;28;20066;-70
2021/10/24 02:35:00;;;;;;;;;;;;;;;17.97;57.25;100312.41;2081287;28;20465;-71
2021/10/24 02:36:00;;;;;;;;;;;;;;;17.97;57.25;100306.94;2083751;28;19920;-70
2021/10/24 02:37:01;;;;;;;;;;;;;;;17.98;57.02;100310.53;2079432;28;20622;-70
2021/10/24 02:38:01;;;;;;;;;;;;;;;17.97;57.29;100306.09;2083036;28;19931;-70
2021/10/24 02:39:02;;;;;;;;;;;;;;;17.97;57.21;100300.63;2078395;28;19924;-70
2021/10/24 02:40:03;;;;;;;;;;;;;;;17.97;57.16;100312.41;2079370;28;20425;-70
2021/10/24 02:41:04;;;;;;;;;;;;;;;17.95;57.19;100308.94;2081106;28;20716;-71
2021/10/24 02:42:05;;;;;;;;;;;;;;;17.96;57.28;100310.69;2077579;28;20058;-71
2021/10/24 02:43:06;;;;;;;;;;;;;;;17.96;57.17;100307.97;2073047;28;19924;-71
2021/10/24 02:44:06;;;;;;;;;;;;;;;17.96;57.26;100304.38;2073372;28;19921;-70
2021/10/24 02:45:07;;;;;;;;;;;;;;;17.97;57.18;100298.75;2078923;28;19924;-71
2021/10/24 02:46:07;;;;;;;;;;;;;;;17.96;56.99;100299.78;2084219;28;19954;-71
2021/10/24 02:47:07;;;;;;;;;;;;;;;17.96;56.93;100305.22;2085255;28;20020;-70
2021/10/24 02:48:08;;;;;;;;;;;;;;;17.96;57.08;100297.06;2078603;28;19908;-70
2021/10/24 02:49:09;;;;;;;;;;;;;;;17.96;56.92;100294.31;2082642;28;19920;-71
2021/10/24 02:50:10;;;;;;;;;;;;;;;17.96;56.92;100297.06;2083839;28;19916;-70
2021/10/24 02:51:10;;;;;;;;;;;;;;;17.95;57.00;100303.50;2073482;28;20012;-70
2021/10/24 02:52:10;;;;;;;;;;;;;;;17.95;57.08;100297.19;2074515;28;19916;-70
2021/10/24 02:53:10;;;;;;;;;;;;;;;17.95;57.06;100295.31;2079247;28;19909;-70
2021/10/24 02:54:11;;;;;;;;;;;;;;;17.96;57.05;100286.16;2081398;28;19999;-70
2021/10/24 02:55:12;;;;;;;;;;;;;;;17.94;57.08;100296.31;2082379;28;19962;-69
2021/10/24 02:56:12;;;;;;;;;;;;;;;17.96;56.95;100293.47;2082737;28;20954;-70
2021/10/24 02:57:12;;;;;;;;;;;;;;;17.95;56.87;100281.66;2080560;28;19914;-70
2021/10/24 02:58:13;;;;;;;;;;;;;;;17.95;57.25;100287.13;2081778;28;19919;-70
2021/10/24 02:59:13;;;;;;;;;;;;;;;17.95;57.26;100292.59;2073910;28;19921;-70
2021/10/24 03:00:14;;;;;;;;;;;;;;;17.94;57.15;100293.59;2073758;28;20177;-70
2021/10/24 03:01:14;;;;;;;;;;;;;;;17.94;57.24;100293.59;2076594;28;20255;-71
2021/10/24 03:02:14;;;;;;;;;;;;;;;17.94;57.06;100279.97;2074621;28;19956;-70
2021/10/24 03:03:15;;;;;;;;;;;;;;;17.94;56.96;100299.06;2085435;28;19920;-71
2021/10/24 03:04:15;;;;;;;;;;;;;;;17.94;56.94;100293.59;2084637;28;20023;-71
2021/10/24 03:05:15;;;;;;;;;;;;;;;17.94;57.02;100295.47;2087708;28;19973;-71
2021/10/24 03:06:16;;;;;;;;;;;;;;;17.94;56.87;100296.31;2080479;28;19916;-69
2021/10/24 03:07:16;;;;;;;;;;;;;;;17.93;57.15;100289.16;2082318;28;19921;-69
2021/10/24 03:08:16;;;;;;;;;;;;;;;17.93;56.97;100294.59;2079221;28;19917;-70
2021/10/24 03:09:17;;;;;;;;;;;;;;;17.93;57.00;100294.59;2080286;28;19928;-70
2021/10/24 03:10:17;;;;;;;;;;;;;;;17.93;57.13;100299.19;2087417;28;19912;-70
2021/10/24 03:11:17;;;;;;;;;;;;;;;17.93;57.07;100294.59;2078220;28;19946;-70
2021/10/24 03:12:18;;;;;;;;;;;;;;;17.93;56.81;100289.16;2085992;28;19997;-71
2021/10/24 03:13:18;;;;;;;;;;;;;;;17.93;57.02;100294.59;2079562;28;20418;-70
2021/10/24 03:14:18;;;;;;;;;;;;;;;17.93;57.13;100288.25;2078478;28;20469;-70
2021/10/24 03:15:19;;;;;;;;;;;;;;;17.94;57.08;100288.13;2081679;28;19955;-71
2021/10/24 03:16:19;;;;;;;;;;;;;;;17.94;56.87;100284.56;2082797;28;20545;-71
2021/10/24 03:17:19;;;;;;;;;;;;;;;17.93;57.07;100289.16;2087700;28;20383;-70
2021/10/24 03:18:20;;;;;;;;;;;;;;;17.93;56.99;100294.59;2078978;28;19912;-71
2021/10/24 03:19:20;;;;;;;;;;;;;;;17.93;56.79;100288.25;2079177;28;19947;-71
2021/10/24 03:20:20;;;;;;;;;;;;;;;17.92;56.83;100287.41;2078303;28;19924;-70
2021/10/24 03:21:21;;;;;;;;;;;;;;;17.91;57.05;100285.69;2083423;28;20194;-70
2021/10/24 03:22:21;;;;;;;;;;;;;;;17.92;56.95;100287.41;2082117;28;20396;-70
2021/10/24 03:23:21;;;;;;;;;;;;;;;17.93;56.88;100293.72;2083499;28;20596;-70
2021/10/24 03:24:22;;;;;;;;;;;;;;;17.93;57.10;100294.59;2082145;28;20460;-70
2021/10/24 03:25:22;;;;;;;;;;;;;;;17.92;57.06;100287.41;2081672;28;19951;-70
2021/10/24 03:26:23;;;;;;;;;;;;;;;17.91;56.85;100285.69;2083755;28;19916;-70
2021/10/24 03:27:23;;;;;;;;;;;;;;;17.91;56.98;100280.25;2078063;28;19936;-70
2021/10/24 03:28:23;;;;;;;;;;;;;;;17.90;56.81;100281.22;2081468;28;19932;-71
2021/10/24 03:29:24;;;;;;;;;;;;;;;17.92;56.65;100283.81;2076439;28;19987;-71
2021/10/24 03:30:24;;;;;;;;;;;;;;;17.91;56.89;100285.69;2078759;28;19967;-71
2021/10/24 03:31:25;;;;;;;;;;;;;;;17.91;56.82;100280.25;2085776;28;19917;-70
2021/10/24 03:32:25;;;;;;;;;;;;;;;17.91;56.85;100282.97;2083713;28;20031;-70
2021/10/24 03:33:26;;;;;;;;;;;;;;;17.91;56.70;100285.69;2085538;28;20379;-70
2021/10/24 03:34:26;;;;;;;;;;;;;;;17.91;56.82;100274.78;2078773;28;19921;-71
2021/10/24 03:35:27;;;;;;;;;;;;;;;17.90;56.93;100278.50;2080936;28;19916;-70
2021/10/24 03:36:27;;;;;;;;;;;;;;;17.90;56.76;100278.50;2079332;28;19923;-70
2021/10/24 03:37:27;;;;;;;;;;;;;;;17.90;56.75;100272.19;2073672;28;19939;-71
2021/10/24 03:38:28;;;;;;;;;;;;;;;17.90;56.69;100277.63;2073847;28;19944;-70
2021/10/24 03:39:28;;;;;;;;;;;;;;;17.89;56.73;100276.78;2083416;28;19939;-70
2021/10/24 03:40:28;;;;;;;;;;;;;;;17.89;56.84;100276.78;2078176;28;19956;-71
2021/10/24 03:41:29;;;;;;;;;;;;;;;17.89;56.85;100275.94;2078441;28;19931;-70
2021/10/24 03:42:29;;;;;;;;;;;;;;;17.90;57.00;100270.31;2085312;28;20404;-71
2021/10/24 03:43:29;;;;;;;;;;;;;;;17.89;56.84;100271.34;2079996;28;19967;-70
2021/10/24 03:44:30;;;;;;;;;;;;;;;17.89;56.90;100265.88;2084843;28;20202;-69
2021/10/24 03:45:30;;;;;;;;;;;;;;;17.89;56.72;100276.78;2078140;28;20451;-70
2021/10/24 03:46:31;;;;;;;;;;;;;;;17.89;56.81;100265.88;2079875;28;20485;-71
2021/10/24 03:47:31;;;;;;;;;;;;;;;17.89;56.82;100265.88;2085104;28;20733;-71
2021/10/24 03:48:31;;;;;;;;;;;;;;;17.89;56.89;100265.03;2082790;28;19921;-70
2021/10/24 03:49:32;;;;;;;;;;;;;;;17.89;56.79;100271.34;2084149;28;19943;-70
2021/10/24 03:50:32;;;;;;;;;;;;;;;17.88;56.77;100266.84;2087034;28;19916;-70
2021/10/24 03:51:32;;;;;;;;;;;;;;;17.90;56.72;100274.91;2081316;28;19952;-71
2021/10/24 03:52:33;;;;;;;;;;;;;;;17.88;56.73;100264.13;2083789;28;19916;-71
2021/10/24 03:53:33;;;;;;;;;;;;;;;17.89;56.91;100270.47;2087030;28;19967;-71
2021/10/24 03:54:33;;;;;;;;;;;;;;;17.89;56.83;100271.34;2080484;28;20710;-72
2021/10/24 03:55:34;;;;;;;;;;;;;;;17.89;56.84;100270.47;2087063;28;19920;-70
2021/10/24 03:56:34;;;;;;;;;;;;;;;17.89;56.81;100271.34;2080644;28;20003;-70
2021/10/24 03:57:34;;;;;;;;;;;;;;;17.89;56.64;100271.34;2078240;28;19913;-71
2021/10/24 03:58:35;;;;;;;;;;;;;;;17.89;56.82;100270.47;2082227;28;20143;-71
2021/10/24 03:59:35;;;;;;;;;;;;;;;17.89;56.74;100275.94;2084092;28;19916;-71
2021/10/24 04:00:35;;;;;;;;;;;;;;;17.89;56.79;100273.19;2083622;28;19931;-70
2021/10/24 04:01:36;;;;;;;;;;;;;;;17.88;56.76;100275.03;2087466;28;20386;-71
2021/10/24 04:02:55;;;;;;;;;;;;;;;17.88;56.83;100275.03;2084806;28;20421;-71
2021/10/24 04:03:56;;;;;;;;;;;;;;;17.88;56.59;100274.19;2082089;28;19916;-71
2021/10/24 04:04:56;;;;;;;;;;;;;;;17.88;56.74;100274.19;2085239;28;19916;-71
2021/10/24 04:05:56;;;;;;;;;;;;;;;17.87;56.72;100278.78;2081235;28;19912;-71
2021/10/24 04:06:56;;;;;;;;;;;;;;;17.88;56.61;100285.09;2081550;28;20109;-71
2021/10/24 04:07:57;;;;;;;;;;;;;;;17.88;56.58;100275.03;2084678;28;19955;-71
2021/10/24 04:08:57;;;;;;;;;;;;;;;17.88;56.79;100274.19;2084350;28;19927;-71
2021/10/24 04:09:57;;;;;;;;;;;;;;;17.88;56.76;100280.50;2081904;28;20417;-71
2021/10/24 04:10:58;;;;;;;;;;;;;;;17.86;56.60;100282.53;2075381;28;19963;-71
2021/10/24 04:11:58;;;;;;;;;;;;;;;17.87;56.75;100292.41;2078510;28;20011;-71
2021/10/24 04:12:59;;;;;;;;;;;;;;;17.86;56.79;100282.53;2081492;28;19962;-71
2021/10/24 04:13:59;;;;;;;;;;;;;;;17.86;56.92;100282.53;2080410;28;19916;-71
2021/10/24 04:14:59;;;;;;;;;;;;;;;17.87;56.77;100283.38;2084021;28;20562;-70
2021/10/24 04:15:59;;;;;;;;;;;;;;;17.87;56.71;100286.97;2085805;28;19956;-70
2021/10/24 04:17:00;;;;;;;;;;;;;;;17.87;56.66;100281.50;2084231;28;20396;-70
2021/10/24 04:18:00;;;;;;;;;;;;;;;17.86;56.55;100285.25;2084596;28;19923;-70
2021/10/24 04:19:00;;;;;;;;;;;;;;;17.86;56.72;100281.63;2083163;28;19948;-70
2021/10/24 04:20:00;;;;;;;;;;;;;;;17.86;56.59;100287.97;2085714;28;19966;-70
2021/10/24 04:21:01;;;;;;;;;;;;;;;17.87;56.63;100283.38;2083635;28;20063;-70
2021/10/24 04:22:01;;;;;;;;;;;;;;;17.87;56.77;100288.84;2084835;28;19923;-70
2021/10/24 04:23:01;;;;;;;;;;;;;;;17.86;56.53;100282.53;2086661;28;19916;-70
2021/10/24 04:24:02;;;;;;;;;;;;;;;17.86;56.63;100290.69;2085299;28;20329;-71
2021/10/24 04:25:03;;;;;;;;;;;;;;;17.87;56.59;100283.38;2083584;28;20410;-70
2021/10/24 04:26:04;;;;;;;;;;;;;;;17.87;56.66;100294.28;2078576;28;19999;-71
2021/10/24 04:27:04;;;;;;;;;;;;;;;17.86;56.85;100281.63;2074114;28;19936;-70
2021/10/24 04:28:04;;;;;;;;;;;;;;;17.85;56.76;100294.41;2071274;28;19917;-71
2021/10/24 04:29:04;;;;;;;;;;;;;;;17.86;56.90;100298.00;2075627;28;19920;-70
2021/10/24 04:30:06;;;;;;;;;;;;;;;17.85;56.79;100288.97;2079850;28;19964;-71
2021/10/24 04:31:06;;;;;;;;;;;;;;;17.85;56.64;100297.13;2074599;28;19921;-70
2021/10/24 04:32:07;;;;;;;;;;;;;;;17.84;56.60;100300.88;2075397;28;20395;-71
2021/10/24 04:33:07;;;;;;;;;;;;;;;17.85;56.72;100294.41;2083846;28;19943;-71
2021/10/24 04:34:07;;;;;;;;;;;;;;;17.84;56.61;100295.44;2086183;28;19939;-71
2021/10/24 04:35:08;;;;;;;;;;;;;;;17.85;56.70;100297.13;2078491;28;19912;-71
2021/10/24 04:36:08;;;;;;;;;;;;;;;17.85;56.62;100296.28;2087673;28;20454;-72
2021/10/24 04:37:08;;;;;;;;;;;;;;;17.84;56.72;100292.69;2085026;28;20442;-71
2021/10/24 04:38:09;;;;;;;;;;;;;;;17.84;56.63;100295.44;2080351;28;19916;-72
2021/10/24 04:39:09;;;;;;;;;;;;;;;17.85;56.61;100299.00;2087653;28;19915;-72
2021/10/24 04:40:10;;;;;;;;;;;;;;;17.85;56.55;100297.13;2084880;28;19920;-71
2021/10/24 04:41:10;;;;;;;;;;;;;;;17.84;56.69;100292.69;2081755;28;20010;-72
2021/10/24 04:42:10;;;;;;;;;;;;;;;17.83;56.58;100288.22;2089719;28;19908;-72
2021/10/24 04:43:14;;;;;;;;;;;;;;;17.84;56.71;100300.03;2085934;28;20010;-71
2021/10/24 04:44:14;;;;;;;;;;;;;;;17.83;56.73;100299.13;2075574;28;20383;-71
2021/10/24 04:45:15;;;;;;;;;;;;;;;17.84;56.71;100298.16;2078296;28;20675;-72
2021/10/24 04:46:15;;;;;;;;;;;;;;;17.85;56.42;100290.81;2081566;28;20819;-71
2021/10/24 04:47:15;;;;;;;;;;;;;;;17.84;56.56;100292.69;2087169;28;20356;-71
2021/10/24 04:48:15;;;;;;;;;;;;;;;17.83;56.61;100293.69;2083490;28;19909;-71
2021/10/24 04:49:16;;;;;;;;;;;;;;;17.84;56.52;100294.56;2083181;28;20373;-72
2021/10/24 04:50:16;;;;;;;;;;;;;;;17.84;56.66;100294.56;2085441;28;20303;-71
2021/10/24 04:51:17;;;;;;;;;;;;;;;17.83;56.49;100293.69;2079741;28;19963;-72
2021/10/24 04:52:17;;;;;;;;;;;;;;;17.83;56.49;100292.81;2081800;28;19912;-71
2021/10/24 04:53:17;;;;;;;;;;;;;;;17.84;56.47;100298.16;2082943;28;19956;-71
2021/10/24 04:54:20;;;;;;;;;;;;;;;17.83;56.67;100282.78;2081017;28;20418;-71
2021/10/24 04:55:20;;;;;;;;;;;;;;;17.82;56.67;100291.97;2083174;28;19917;-72
2021/10/24 04:56:20;;;;;;;;;;;;;;;17.83;56.40;100299.13;2081529;28;20134;-71
2021/10/24 04:57:21;;;;;;;;;;;;;;;17.83;56.62;100295.53;2083517;28;19917;-71
2021/10/24 04:58:22;;;;;;;;;;;;;;;17.83;56.40;100292.81;2083482;28;20384;-71
2021/10/24 04:59:23;;;;;;;;;;;;;;;17.82;56.55;100297.41;2083281;28;19970;-72
2021/10/24 05:00:23;;;;;;;;;;;;;;;17.82;56.50;100291.09;2080194;28;19913;-72
2021/10/24 05:01:24;;;;;;;;;;;;;;;17.82;56.39;100286.50;2080062;28;20055;-72
2021/10/24 05:02:24;;;;;;;;;;;;;;;17.82;56.47;100289.25;2074012;28;19917;-72
2021/10/24 05:03:24;;;;;;;;;;;;;;;17.82;56.65;100294.69;2070847;28;19917;-72
2021/10/24 05:04:26;;;;;;;;;;;;;;;17.82;56.38;100297.41;2079942;28;19921;-70
2021/10/24 05:05:26;;;;;;;;;;;;;;;17.82;56.48;100291.97;2083298;28;19932;-68
2021/10/24 05:06:27;;;;;;;;;;;;;;;17.82;56.42;100294.69;2078941;28;20168;-70
2021/10/24 05:07:27;;;;;;;;;;;;;;;17.83;56.50;100298.28;2079617;28;19974;-70
2021/10/24 05:08:28;;;;;;;;;;;;;;;17.82;56.67;100291.97;2078259;28;19921;-71
2021/10/24 05:09:28;;;;;;;;;;;;;;;17.82;56.81;100297.41;2077905;28;19917;-70
2021/10/24 05:10:28;;;;;;;;;;;;;;;17.84;56.86;100291.84;2083014;28;19917;-71